Time;durP1;ratioP1;P1;durP2;ratioP2;P2;SDS_P1;SDS_P2;PMS_P1;PMS_P2;Temp;Humidity;BMP_temperature;BMP_pressure;BME280_temperature;BME280_humidity;BME280_pressure;Samples;Min_cycle;Max_cycle;Signal;HPM_P1;HPM_P2
2021/04/03 08:01:27;;;;;;;9.03;4.15;;;;;;;19.66;26.27;98475.32;1853594;77;22131;-63
2021/04/03 08:04:03;;;;;;;6.47;3.35;;;;;;;19.70;26.20;98480.05;1757784;81;21158;-64
2021/04/03 08:06:40;;;;;;;5.35;3.02;;;;;;;19.44;25.89;98491.36;1789796;80;21174;-64
2021/04/03 08:09:15;;;;;;;7.05;3.30;;;;;;;19.13;25.59;98489.70;1758637;81;21116;-65
2021/04/03 08:11:50;;;;;;;8.55;3.35;;;;;;;18.98;26.31;98494.09;1758785;81;21182;-64
2021/04/03 08:14:17;;;;;;;8.08;2.75;;;;;;;18.60;26.08;98484.33;1758102;81;21279;-64
2021/04/03 08:16:45;;;;;;;7.40;3.22;;;;;;;18.31;26.68;98478.61;1758957;81;21253;-65
2021/04/03 08:19:15;;;;;;;6.08;2.77;;;;;;;18.09;27.10;98473.12;1758700;81;21185;-63
2021/04/03 08:21:48;;;;;;;8.10;2.72;;;;;;;17.83;27.23;98479.05;1758701;81;21175;-63
2021/04/03 08:24:19;;;;;;;4.45;2.50;;;;;;;17.70;27.60;98470.64;1758909;81;21249;-65
2021/04/03 08:26:48;;;;;;;7.55;3.37;;;;;;;17.46;27.80;98462.55;1758824;81;21394;-65
2021/04/03 08:29:32;;;;;;;5.58;2.80;;;;;;;17.20;28.27;98464.92;1758866;81;21236;-65
2021/04/03 08:32:01;;;;;;;5.25;2.85;;;;;;;17.02;28.48;98465.78;1758996;81;21169;-64
2021/04/03 08:34:29;;;;;;;6.17;2.77;;;;;;;17.53;28.48;98462.81;1758683;81;21154;-64
2021/04/03 08:36:58;;;;;;;7.30;3.40;;;;;;;18.10;27.73;98469.17;1758768;81;21146;-64
2021/04/03 08:39:27;;;;;;;7.85;3.25;;;;;;;18.42;27.63;98468.73;1758624;81;21154;-62
2021/04/03 08:41:58;;;;;;;6.50;2.80;;;;;;;18.95;27.04;98470.66;1758599;81;21300;-64
2021/04/03 08:44:30;;;;;;;6.55;2.08;;;;;;;18.56;26.04;98461.78;1758778;81;21178;-65
2021/04/03 08:47:01;;;;;;;6.62;2.02;;;;;;;17.92;26.32;98454.86;1758911;81;21178;-64
2021/04/03 08:49:34;;;;;;;6.47;3.22;;;;;;;18.23;26.86;98449.64;1758732;81;21312;-66
2021/04/03 08:52:06;;;;;;;5.92;2.20;;;;;;;18.80;26.44;98451.95;1758626;81;21203;-64
2021/04/03 08:54:42;;;;;;;5.03;1.60;;;;;;;19.01;25.81;98442.58;1758659;81;21146;-63
2021/04/03 08:57:29;;;;;;;6.25;1.57;;;;;;;18.78;24.55;98450.28;1758875;81;21122;-64
2021/04/03 09:00:03;;;;;;;5.33;2.00;;;;;;;18.28;23.56;98450.82;1754689;81;21297;-64
2021/04/03 09:02:33;;;;;;;3.58;1.62;;;;;;;17.99;23.95;98458.17;1742691;82;21170;-64
2021/04/03 09:05:06;;;;;;;5.22;1.35;;;;;;;17.56;23.91;98454.90;1742711;82;21151;-64
2021/04/03 09:07:36;;;;;;;7.17;1.30;;;;;;;17.12;23.95;98450.34;1742864;82;21232;-64
2021/04/03 09:10:16;;;;;;;20.63;14.80;;;;;;;16.16;23.56;98456.31;1742951;82;21163;-64
2021/04/03 09:12:47;;;;;;;11.97;8.00;;;;;;;15.78;23.72;98457.44;1811425;79;21296;-64
2021/04/03 09:15:30;;;;;;;8.80;3.50;;;;;;;15.48;24.11;98460.55;1811114;79;21170;-65
2021/04/03 09:17:59;;;;;;;3.77;2.42;;;;;;;15.25;24.33;98461.78;1808843;79;21216;-64
2021/04/03 09:20:31;;;;;;;5.10;1.98;;;;;;;14.65;24.09;98456.60;1742338;82;21224;-64
2021/04/03 09:23:06;;;;;;;6.40;2.22;;;;;;;13.97;26.18;98452.64;1811474;79;21281;-64
2021/04/03 09:25:35;;;;;;;4.50;2.55;;;;;;;13.68;27.06;98455.95;1742143;82;21131;-65
2021/04/03 09:28:11;;;;;;;7.12;2.40;;;;;;;13.55;27.78;98460.84;1811396;79;21312;-62
2021/04/03 09:30:44;;;;;;;7.67;2.62;;;;;;;13.59;27.78;98459.95;1742408;82;21326;-64
2021/04/03 09:33:25;;;;;;;7.15;1.80;;;;;;;13.69;27.93;98458.13;1811347;79;21127;-64
2021/04/03 09:36:10;;;;;;;3.95;1.67;;;;;;;13.44;28.10;98452.31;1811138;79;21954;-64
2021/04/03 09:38:39;;;;;;;4.47;1.85;;;;;;;12.93;28.74;98455.70;1742138;82;21179;-64
2021/04/03 09:41:33;;;;;;;4.17;1.80;;;;;;;12.73;29.31;98460.56;1811048;79;21150;-64
2021/04/03 09:44:02;;;;;;;5.03;2.05;;;;;;;12.79;29.42;98456.63;1785960;79;21138;-63
2021/04/03 09:46:30;;;;;;;7.08;1.95;;;;;;;12.33;28.85;98452.98;1811509;79;21542;-64
2021/04/03 09:49:00;;;;;;;5.00;1.98;;;;;;;12.02;29.51;98472.08;1811224;79;21146;-64
2021/04/03 09:51:28;;;;;;;5.25;2.30;;;;;;;11.77;30.15;98472.53;1811086;79;21292;-65
2021/04/03 09:53:56;;;;;;;5.60;3.30;;;;;;;11.60;30.44;98463.09;1811225;79;21127;-63
2021/04/03 09:56:24;;;;;;;5.62;2.72;;;;;;;11.47;31.16;98457.08;1811277;79;21138;-64
2021/04/03 09:58:54;;;;;;;7.28;2.15;;;;;;;11.33;31.67;98460.52;1742423;82;21179;-63
2021/04/03 10:01:22;;;;;;;4.50;1.72;;;;;;;11.25;32.16;98457.95;1811062;79;21303;-63
2021/04/03 10:03:53;;;;;;;5.60;2.77;;;;;;;11.17;32.66;98450.20;1742177;82;21305;-63
2021/04/03 10:06:22;;;;;;;6.83;2.02;;;;;;;11.06;32.77;98455.77;1811384;79;21300;-64
2021/04/03 10:08:50;;;;;;;4.30;1.57;;;;;;;11.11;32.42;98454.48;1811056;79;21131;-63
2021/04/03 10:11:18;;;;;;;7.83;2.00;;;;;;;11.17;32.34;98449.31;1742276;82;21204;-64
2021/04/03 10:13:47;;;;;;;5.42;3.02;;;;;;;11.26;32.99;98459.22;1811082;79;21186;-63
2021/04/03 10:16:16;;;;;;;6.47;2.72;;;;;;;11.48;32.94;98472.14;1811047;79;21138;-64
2021/04/03 10:18:45;;;;;;;4.62;1.85;;;;;;;11.66;32.69;98468.68;1811002;79;21664;-64
2021/04/03 10:21:14;;;;;;;4.45;1.80;;;;;;;11.70;32.54;98470.38;1742309;82;21147;-64
2021/04/03 10:23:43;;;;;;;3.25;1.70;;;;;;;11.66;32.33;98467.39;1810980;79;21293;-65
2021/04/03 10:26:11;;;;;;;3.67;1.70;;;;;;;11.67;31.96;98465.22;1811452;79;21280;-65
2021/04/03 10:28:40;;;;;;;5.62;1.62;;;;;;;11.71;31.71;98460.48;1742161;82;21589;-65
2021/04/03 10:31:08;;;;;;;4.08;1.57;;;;;;;11.98;31.41;98460.02;1811351;79;21564;-64
2021/04/03 10:33:36;;;;;;;5.33;1.87;;;;;;;12.26;30.65;98453.91;1811094;79;21131;-64
2021/04/03 10:36:08;;;;;;;8.73;1.70;;;;;;;12.49;30.04;98452.91;1811021;79;21127;-64
2021/04/03 10:38:36;;;;;;;4.95;1.25;;;;;;;12.49;29.73;98466.74;1811089;79;21293;-64
2021/04/03 10:41:07;;;;;;;4.92;1.67;;;;;;;12.66;29.42;98457.58;1811009;79;21115;-64
2021/04/03 10:43:37;;;;;;;3.58;1.50;;;;;;;12.99;27.93;98446.58;1742282;82;21300;-64
2021/04/03 10:46:10;;;;;;;3.70;1.52;;;;;;;12.86;28.23;98448.84;1811333;79;21308;-64
2021/04/03 10:48:37;;;;;;;4.05;1.92;;;;;;;12.73;28.99;98452.80;1811333;79;21166;-64
2021/04/03 10:51:06;;;;;;;5.08;2.92;;;;;;;12.53;29.50;98452.05;1811124;79;21280;-64
2021/04/03 10:53:34;;;;;;;3.40;1.50;;;;;;;12.38;29.49;98457.70;1811027;79;21154;-64
2021/04/03 10:56:02;;;;;;;7.03;2.87;;;;;;;12.18;29.77;98454.34;1742391;82;21142;-64
2021/04/03 10:58:31;;;;;;;10.48;3.77;;;;;;;12.12;29.71;98450.50;1811122;79;21159;-64
2021/04/03 11:00:59;;;;;;;3.50;1.47;;;;;;;12.09;30.01;98453.10;1745377;82;21312;-64
2021/04/03 11:03:27;;;;;;;4.22;1.35;;;;;;;12.07;29.90;98447.06;1819627;79;21111;-63
2021/04/03 11:05:55;;;;;;;4.33;1.42;;;;;;;12.03;29.84;98444.05;1750141;82;21166;-64
2021/04/03 11:08:24;;;;;;;3.50;1.60;;;;;;;11.91;30.26;98451.00;1819960;79;21292;-64
2021/04/03 11:10:52;;;;;;;4.58;1.45;;;;;;;11.99;30.16;98448.39;1819592;79;21251;-64
2021/04/03 11:13:20;;;;;;;4.40;1.40;;;;;;;12.08;30.01;98457.83;1819581;79;21146;-64
2021/04/03 11:15:48;;;;;;;3.37;1.20;;;;;;;12.23;29.96;98450.45;1819790;79;21308;-64
2021/04/03 11:18:16;;;;;;;4.62;1.57;;;;;;;12.37;29.16;98446.94;1819613;79;21162;-64
2021/04/03 11:20:45;;;;;;;3.60;1.10;;;;;;;12.28;28.85;98435.33;1819781;79;21288;-64
2021/04/03 11:23:13;;;;;;;4.90;2.72;;;;;;;12.02;28.64;98449.66;1819620;79;21134;-64
2021/04/03 11:25:41;;;;;;;5.45;2.22;;;;;;;11.79;28.86;98454.02;1819693;79;21127;-63
2021/04/03 11:28:11;;;;;;;3.08;1.20;;;;;;;11.72;29.17;98450.12;1819602;79;21569;-63
2021/04/03 11:30:39;;;;;;;2.80;1.27;;;;;;;11.71;28.92;98451.44;1819561;79;21288;-64
2021/04/03 11:33:08;;;;;;;3.95;1.50;;;;;;;11.81;29.31;98449.27;1819600;79;21169;-64
2021/04/03 11:35:36;;;;;;;3.67;1.30;;;;;;;11.94;30.39;98448.39;1819778;79;21099;-64
2021/04/03 11:38:04;;;;;;;3.87;1.35;;;;;;;12.18;30.64;98444.00;1819552;79;21300;-64
2021/04/03 11:40:33;;;;;;;4.08;1.62;;;;;;;12.54;30.36;98440.81;1819574;79;21158;-64
2021/04/03 11:43:02;;;;;;;3.02;1.42;;;;;;;12.86;30.34;98443.66;1750255;82;21131;-63
2021/04/03 11:45:31;;;;;;;8.85;1.57;;;;;;;13.11;30.21;98438.72;1819519;79;21173;-64
2021/04/03 11:47:59;;;;;;;4.15;1.52;;;;;;;13.36;30.43;98432.09;1819877;79;21277;-64
2021/04/03 11:50:27;;;;;;;2.60;1.20;;;;;;;13.60;30.13;98426.66;1819779;79;21170;-64
2021/04/03 11:52:59;;;;;;;2.20;1.25;;;;;;;13.65;28.96;98432.66;1819585;79;21103;-63
2021/04/03 11:55:28;;;;;;;3.70;1.50;;;;;;;13.45;29.05;98428.95;1820018;79;21166;-63
2021/04/03 11:57:55;;;;;;;3.55;1.40;;;;;;;13.35;29.53;98432.50;1819749;79;21289;-64
2021/04/03 12:00:24;;;;;;;4.12;1.70;;;;;;;13.33;29.56;98430.80;1749861;82;21573;-63
2021/04/03 12:02:52;;;;;;;5.55;1.90;;;;;;;13.16;30.05;98441.28;1811284;79;21303;-64
2021/04/03 12:05:20;;;;;;;3.58;1.57;;;;;;;13.07;30.36;98442.20;1811019;79;21147;-63
2021/04/03 12:07:48;;;;;;;4.42;1.60;;;;;;;13.01;30.08;98442.25;1811136;79;21261;-63
2021/04/03 12:10:18;;;;;;;7.40;1.47;;;;;;;12.90;30.31;98436.27;1810964;79;21125;-64
2021/04/03 12:12:46;;;;;;;3.85;1.30;;;;;;;12.85;30.50;98440.63;1742060;82;21163;-64
2021/04/03 12:15:16;;;;;;;5.03;1.72;;;;;;;12.77;29.70;98436.38;1811312;79;21103;-64
2021/04/03 12:17:47;;;;;;;2.85;1.27;;;;;;;12.71;29.98;98438.98;1811178;79;21154;-65
2021/04/03 12:20:17;;;;;;;3.05;1.35;;;;;;;12.85;29.83;98435.45;1811095;79;21309;-65
2021/04/03 12:22:46;;;;;;;4.40;1.42;;;;;;;13.04;29.32;98436.60;1811286;79;21564;-64
2021/04/03 12:25:15;;;;;;;4.85;1.30;;;;;;;12.99;29.19;98441.40;1810996;79;21600;-64
2021/04/03 12:27:43;;;;;;;4.42;1.20;;;;;;;12.96;29.05;98449.20;1742065;82;21230;-64
2021/04/03 12:30:14;;;;;;;3.67;1.45;;;;;;;13.06;29.43;98455.18;1811053;79;21139;-64
2021/04/03 12:32:42;;;;;;;4.50;1.80;;;;;;;13.12;28.87;98452.09;1811063;79;21213;-63
2021/04/03 12:35:12;;;;;;;6.75;1.55;;;;;;;12.91;28.57;98454.84;1742321;82;21557;-64
2021/04/03 12:37:40;;;;;;;5.80;1.50;;;;;;;12.56;29.21;98457.20;1811275;79;21285;-63
2021/04/03 12:40:11;;;;;;;3.65;1.27;;;;;;;12.37;29.80;98453.41;1811272;79;21175;-63
2021/04/03 12:42:40;;;;;;;3.65;1.70;;;;;;;12.14;30.47;98457.39;1742298;82;21155;-64
2021/04/03 12:45:10;;;;;;;4.55;1.77;;;;;;;12.03;30.89;98456.55;1810957;79;21155;-64
2021/04/03 12:47:38;;;;;;;4.03;1.55;;;;;;;11.92;31.05;98461.75;1811090;79;21127;-64
2021/04/03 12:50:09;;;;;;;4.50;1.60;;;;;;;12.15;30.37;98460.39;1742272;82;21127;-64
2021/04/03 12:52:37;;;;;;;3.75;1.50;;;;;;;12.30;30.40;98453.01;1811392;79;21542;-64
2021/04/03 12:55:07;;;;;;;4.67;1.70;;;;;;;12.59;30.31;98461.06;1742372;82;21235;-64
2021/04/03 12:57:35;;;;;;;4.60;1.60;;;;;;;12.90;29.72;98452.70;1811124;79;21139;-64
2021/04/03 13:00:06;;;;;;;6.53;1.65;;;;;;;13.15;29.25;98448.62;1811390;79;21304;-64
2021/04/03 13:02:34;;;;;;;3.87;1.50;;;;;;;13.21;29.25;98440.38;1817968;79;21285;-64
2021/04/03 13:05:04;;;;;;;5.10;1.62;;;;;;;13.14;29.89;98447.77;1819821;79;21276;-64
2021/04/03 13:07:32;;;;;;;4.35;1.87;;;;;;;13.16;30.27;98441.28;1750322;82;21166;-63
2021/04/03 13:10:00;;;;;;;3.25;1.30;;;;;;;13.30;30.26;98455.45;1819941;79;21565;-66
2021/04/03 13:12:28;;;;;;;5.75;1.77;;;;;;;13.05;29.93;98447.81;1819674;79;21269;-65
2021/04/03 13:14:56;;;;;;;3.70;1.50;;;;;;;12.72;30.58;98445.91;1819681;79;21135;-64
2021/04/03 13:17:24;;;;;;;3.98;1.65;;;;;;;12.81;30.90;98445.83;1819705;79;21134;-63
2021/04/03 13:19:52;;;;;;;5.58;1.75;;;;;;;12.94;30.65;98439.28;1819900;79;21272;-65
2021/04/03 13:22:20;;;;;;;4.95;1.70;;;;;;;13.03;30.13;98447.00;1819891;79;21233;-64
2021/04/03 13:24:48;;;;;;;3.40;1.45;;;;;;;12.93;30.67;98441.45;1819966;79;21127;-64
2021/04/03 13:27:16;;;;;;;5.58;1.55;;;;;;;12.99;30.83;98443.99;1819678;79;21204;-65
2021/04/03 13:29:45;;;;;;;3.77;1.32;;;;;;;13.09;30.61;98440.46;1819912;79;21358;-63
2021/04/03 13:32:13;;;;;;;3.60;1.20;;;;;;;12.95;30.42;98437.09;1819670;79;21170;-65
2021/04/03 13:34:41;;;;;;;2.83;1.30;;;;;;;12.84;30.50;98446.69;1820003;79;21284;-64
2021/04/03 13:37:13;;;;;;;4.35;1.35;;;;;;;12.76;30.92;98437.23;1750228;82;21240;-64
2021/04/03 13:39:41;;;;;;;4.72;1.50;;;;;;;12.60;31.26;98435.62;1819613;79;21126;-65
2021/04/03 13:42:09;;;;;;;5.17;1.67;;;;;;;12.21;31.64;98416.81;1819854;79;21296;-64
2021/04/03 13:44:37;;;;;;;5.67;1.72;;;;;;;11.74;32.37;98432.05;1819625;79;21171;-63
2021/04/03 13:47:05;;;;;;;3.83;1.50;;;;;;;11.47;32.55;98449.33;1819627;79;21154;-64
2021/04/03 13:49:34;;;;;;;4.12;1.37;;;;;;;11.34;33.14;98454.05;1819738;79;21146;-64
2021/04/03 13:52:03;;;;;;;5.75;1.60;;;;;;;11.22;33.33;98457.92;1787948;79;21281;-63
2021/04/03 13:54:31;;;;;;;5.55;1.80;;;;;;;11.13;33.57;98460.52;1819733;79;21111;-63
2021/04/03 13:56:59;;;;;;;3.40;1.60;;;;;;;11.13;33.75;98460.52;1819669;79;21138;-64
2021/04/03 13:59:28;;;;;;;4.33;1.70;;;;;;;11.13;33.59;98462.66;1819816;79;21134;-64
2021/04/03 14:01:56;;;;;;;4.75;1.57;;;;;;;11.13;33.76;98459.23;1816195;79;21221;-64
2021/04/03 14:04:24;;;;;;;4.78;1.77;;;;;;;11.07;33.55;98451.91;1811307;79;21135;-63
2021/04/03 14:06:53;;;;;;;5.25;1.80;;;;;;;11.12;33.55;98455.79;1811085;79;21272;-64
2021/04/03 14:09:21;;;;;;;4.05;1.30;;;;;;;11.17;33.52;98454.47;1811180;79;21272;-64
2021/04/03 14:11:49;;;;;;;4.67;1.80;;;;;;;11.18;33.38;98453.63;1811351;79;21521;-63
2021/04/03 14:14:17;;;;;;;8.28;1.15;;;;;;;11.11;33.54;98453.19;1811074;79;21164;-64
2021/04/03 14:16:47;;;;;;;4.05;1.70;;;;;;;11.16;33.68;98457.93;1742146;82;21107;-64
2021/04/03 14:19:16;;;;;;;4.08;1.75;;;;;;;11.15;33.61;98458.80;1808715;79;21688;-64
2021/04/03 14:21:44;;;;;;;3.85;1.60;;;;;;;11.17;33.50;98460.52;1811245;79;21127;-64
2021/04/03 14:24:13;;;;;;;7.20;1.50;;;;;;;11.28;33.47;98456.65;1742309;82;21697;-63
2021/04/03 14:26:41;;;;;;;5.17;1.52;;;;;;;11.35;33.36;98460.95;1811316;79;21146;-64
2021/04/03 14:29:08;;;;;;;3.37;1.40;;;;;;;11.41;33.18;98455.77;1811011;79;21281;-65
2021/04/03 14:31:40;;;;;;;3.17;1.45;;;;;;;11.55;32.80;98462.64;1742148;82;21341;-64
2021/04/03 14:34:11;;;;;;;4.80;1.80;;;;;;;11.66;32.34;98457.91;1811097;79;21107;-63
2021/04/03 14:36:40;;;;;;;3.20;1.50;;;;;;;11.58;32.34;98469.13;1742525;82;21292;-63
2021/04/03 14:39:08;;;;;;;3.85;1.70;;;;;;;11.42;32.29;98478.19;1811418;79;21561;-65
2021/04/03 14:41:37;;;;;;;4.10;1.82;;;;;;;11.29;32.78;98477.73;1811261;79;21196;-64
2021/04/03 14:44:08;;;;;;;4.35;1.80;;;;;;;11.21;33.13;98469.13;1811063;79;21119;-62
2021/04/03 14:46:36;;;;;;;5.12;1.80;;;;;;;11.04;33.29;98468.70;1811448;79;21119;-64
2021/04/03 14:49:04;;;;;;;4.78;2.05;;;;;;;10.92;33.80;98468.67;1742370;82;21150;-64
2021/04/03 14:51:34;;;;;;;5.95;1.65;;;;;;;10.83;33.60;98460.90;1811044;79;21135;-64
2021/04/03 14:54:03;;;;;;;5.03;1.62;;;;;;;10.74;33.66;98468.64;1811065;79;21300;-64
2021/04/03 14:56:33;;;;;;;5.30;1.95;;;;;;;10.68;33.67;98471.19;1742139;82;21261;-65
2021/04/03 14:59:01;;;;;;;4.25;2.15;;;;;;;10.68;33.77;98472.48;1742245;82;21566;-64
2021/04/03 15:01:29;;;;;;;6.67;1.92;;;;;;;10.67;33.79;98469.05;1810469;79;21127;-64
2021/04/03 15:03:57;;;;;;;3.77;1.40;;;;;;;10.73;33.83;98472.06;1803934;79;21280;-64
2021/04/03 15:06:25;;;;;;;3.22;1.42;;;;;;;10.71;33.64;98469.91;1803982;79;21139;-64
2021/04/03 15:08:53;;;;;;;3.95;1.77;;;;;;;10.63;33.60;98478.52;1803651;79;21135;-64
2021/04/03 15:11:22;;;;;;;4.20;1.82;;;;;;;10.61;33.50;98481.51;1803650;79;21139;-64
2021/04/03 15:13:50;;;;;;;3.67;1.32;;;;;;;10.56;33.28;98487.52;1803585;79;21127;-64
2021/04/03 15:16:19;;;;;;;4.65;1.52;;;;;;;10.49;33.70;98488.35;1723019;83;21297;-65
2021/04/03 15:18:47;;;;;;;3.47;1.42;;;;;;;10.40;34.14;98493.03;1803631;79;21317;-65
2021/04/03 15:21:15;;;;;;;4.10;1.60;;;;;;;10.30;34.47;98488.25;1803591;79;21308;-64
2021/04/03 15:23:45;;;;;;;6.58;1.70;;;;;;;10.26;34.77;98490.80;1803676;79;21182;-64
2021/04/03 15:26:13;;;;;;;5.58;2.02;;;;;;;10.25;34.77;98479.60;1803851;79;21124;-64
2021/04/03 15:28:43;;;;;;;3.55;1.50;;;;;;;10.19;34.83;98487.33;1803899;79;21151;-64
2021/04/03 15:31:11;;;;;;;3.98;1.60;;;;;;;10.12;34.92;98483.84;1803747;79;21155;-64
2021/04/03 15:33:39;;;;;;;5.10;1.57;;;;;;;10.11;34.93;98480.84;1803830;79;21151;-63
2021/04/03 15:36:08;;;;;;;3.02;1.42;;;;;;;10.07;34.92;98473.08;1803888;79;21633;-64
2021/04/03 15:38:36;;;;;;;3.08;1.40;;;;;;;10.00;34.60;98471.77;1803696;79;21151;-64
2021/04/03 15:41:05;;;;;;;5.42;1.90;;;;;;;9.94;34.85;98472.15;1803843;79;21391;-63
2021/04/03 15:43:39;;;;;;;5.45;2.40;;;;;;;9.91;35.02;98471.70;1803702;79;21139;-64
2021/04/03 15:46:08;;;;;;;3.72;1.50;;;;;;;9.88;35.40;98479.86;1803799;79;21177;-64
2021/04/03 15:48:36;;;;;;;4.20;1.72;;;;;;;9.87;35.40;98478.12;1803659;79;21174;-64
2021/04/03 15:51:05;;;;;;;4.45;1.90;;;;;;;9.89;35.12;98473.84;1803782;79;21293;-63
2021/04/03 15:53:34;;;;;;;3.83;2.00;;;;;;;9.86;35.16;98475.12;1803810;79;21139;-64
2021/04/03 15:56:02;;;;;;;4.85;2.10;;;;;;;9.85;35.19;98485.00;1803613;79;21135;-63
2021/04/03 15:58:31;;;;;;;4.17;1.72;;;;;;;9.85;35.36;98481.14;1803658;79;21147;-63
2021/04/03 16:00:59;;;;;;;5.33;1.95;;;;;;;9.87;35.56;98476.83;1803758;79;21574;-64
2021/04/03 16:03:27;;;;;;;6.62;2.83;;;;;;;9.95;35.51;98473.89;1705706;82;21201;-64
2021/04/03 16:05:55;;;;;;;7.08;2.90;;;;;;;9.99;35.60;98476.91;1784773;80;21158;-63
2021/04/03 16:08:24;;;;;;;8.98;3.27;;;;;;;9.99;36.39;98478.19;1784921;80;21276;-63
2021/04/03 16:10:52;;;;;;;9.03;4.22;;;;;;;9.91;36.83;98470.85;1747587;82;21186;-64
2021/04/03 16:13:20;;;;;;;9.33;4.53;;;;;;;9.83;37.28;98475.11;1721283;83;21203;-64
2021/04/03 16:15:48;;;;;;;10.35;5.08;;;;;;;9.76;37.63;98478.06;1721280;83;21183;-63
2021/04/03 16:18:16;;;;;;;9.70;4.42;;;;;;;9.67;37.87;98475.02;1747952;82;21321;-64
2021/04/03 16:20:44;;;;;;;8.23;3.90;;;;;;;9.61;38.16;98480.10;1784720;80;21146;-63
2021/04/03 16:23:12;;;;;;;7.85;3.60;;;;;;;9.53;38.34;98490.78;1784868;80;21185;-64
2021/04/03 16:25:41;;;;;;;7.87;3.95;;;;;;;9.42;38.36;98484.27;1785126;80;21309;-64
2021/04/03 16:28:09;;;;;;;6.42;3.75;;;;;;;9.32;38.71;98490.20;1747829;82;21150;-64
2021/04/03 16:30:37;;;;;;;9.03;5.00;;;;;;;9.23;38.86;98492.68;1721663;83;21161;-64
2021/04/03 16:33:06;;;;;;;7.47;4.15;;;;;;;9.15;39.01;98492.61;1721586;83;21158;-64
2021/04/03 16:35:34;;;;;;;6.60;3.77;;;;;;;9.05;39.00;98494.23;1721686;83;21151;-64
2021/04/03 16:38:02;;;;;;;8.93;4.03;;;;;;;8.97;39.17;98501.03;1721407;83;21296;-64
2021/04/03 16:40:31;;;;;;;11.10;4.50;;;;;;;8.89;39.31;98502.23;1748045;82;21167;-64
2021/04/03 16:43:00;;;;;;;10.93;5.25;;;;;;;8.82;39.41;98501.73;1784962;80;21284;-63
2021/04/03 16:45:28;;;;;;;10.95;6.03;;;;;;;8.78;39.56;98509.00;1784786;80;21279;-63
2021/04/03 16:47:56;;;;;;;14.18;5.70;;;;;;;8.71;39.85;98511.06;1784747;80;21150;-65
2021/04/03 16:50:24;;;;;;;12.07;5.65;;;;;;;8.68;39.88;98515.75;1784862;80;21138;-64
2021/04/03 16:52:52;;;;;;;10.65;6.00;;;;;;;8.64;40.13;98519.12;1785091;80;21150;-64
2021/04/03 16:55:22;;;;;;;10.30;5.50;;;;;;;8.62;40.29;98525.94;1784796;80;21292;-64
2021/04/03 16:57:49;;;;;;;14.78;5.85;;;;;;;8.57;40.38;98519.88;1747737;82;21156;-64
2021/04/03 17:00:19;;;;;;;10.63;5.28;;;;;;;8.54;40.52;98527.57;1721753;83;21174;-64
2021/04/03 17:02:47;;;;;;;9.75;5.47;;;;;;;8.51;40.60;98529.25;1755168;81;21182;-64
2021/04/03 17:05:15;;;;;;;11.97;5.33;;;;;;;8.48;40.68;98533.51;1700491;84;21183;-64
2021/04/03 17:07:44;;;;;;;11.90;5.58;;;;;;;8.44;40.68;98538.16;1776248;81;21183;-64
2021/04/03 17:10:13;;;;;;;14.00;7.37;;;;;;;8.40;40.80;98532.98;1776404;81;21309;-63
2021/04/03 17:12:44;;;;;;;;;;;;;;;8.37;41.00;98536.34;1779219;81;21155;-63
2021/04/03 17:15:12;;;;;;;16.37;7.62;;;;;;;8.35;41.21;98538.46;1776531;81;20227;-63
2021/04/03 17:17:40;;;;;;;20.25;11.22;;;;;;;8.31;41.33;98548.25;1776260;80;21305;-64
2021/04/03 17:20:11;;;;;;;23.87;12.33;;;;;;;8.30;41.37;98546.11;1700354;84;21154;-64
2021/04/03 17:22:39;;;;;;;24.45;12.70;;;;;;;8.26;41.46;98550.75;1776441;81;21162;-63
2021/04/03 17:25:09;;;;;;;21.57;11.60;;;;;;;8.21;41.59;98554.54;1700549;83;21160;-64
2021/04/03 17:27:37;;;;;;;24.43;13.43;;;;;;;8.18;41.75;98558.36;1776341;80;21179;-63
2021/04/03 17:30:12;;;;;;;25.95;13.15;;;;;;;8.14;41.89;98558.29;1700504;84;21127;-64
2021/04/03 17:32:36;;;;;;;19.60;10.68;;;;;;;8.09;42.04;98556.97;1775618;81;21338;-64
2021/04/03 17:35:05;;;;;;;18.73;9.95;;;;;;;8.05;42.07;98557.32;1700502;84;21316;-63
2021/04/03 17:37:33;;;;;;;18.48;11.30;;;;;;;8.02;42.50;98562.85;1776227;81;21306;-64
2021/04/03 17:40:05;;;;;;;17.07;9.20;;;;;;;7.97;42.62;98574.34;1700276;84;21131;-64
2021/04/03 17:42:33;;;;;;;18.23;9.63;;;;;;;7.93;42.59;98577.69;1776505;81;21723;-63
2021/04/03 17:45:01;;;;;;;20.10;10.48;;;;;;;7.93;42.77;98580.26;1776460;81;21301;-64
2021/04/03 17:47:29;;;;;;;23.25;10.72;;;;;;;7.93;42.79;98582.83;1776520;80;21568;-64
2021/04/03 17:49:57;;;;;;;21.75;10.60;;;;;;;7.91;42.85;98579.41;1700417;83;21431;-64
2021/04/03 17:52:26;;;;;;;20.27;10.58;;;;;;;7.87;42.96;98576.75;1776298;81;21111;-63
2021/04/03 17:54:54;;;;;;;16.82;9.13;;;;;;;7.87;43.03;98581.89;1700540;84;21309;-63
2021/04/03 17:57:22;;;;;;;13.43;7.75;;;;;;;7.84;42.97;98578.86;1776467;80;21293;-64
2021/04/03 17:59:51;;;;;;;13.45;7.35;;;;;;;7.81;42.97;98579.67;1776095;80;21136;-64
2021/04/03 18:02:19;;;;;;;15.83;7.65;;;;;;;7.80;42.99;98579.20;1702741;82;21126;-65
2021/04/03 18:04:48;;;;;;;18.23;9.00;;;;;;;7.81;43.08;98583.52;1819664;79;21296;-64
2021/04/03 18:07:17;;;;;;;14.53;8.20;;;;;;;7.80;43.14;98581.78;1819672;79;21142;-63
2021/04/03 18:09:45;;;;;;;24.25;11.85;;;;;;;7.79;43.37;98586.91;1819843;79;21276;-64
2021/04/03 18:12:13;;;;;;;29.48;12.63;;;;;;;7.77;43.71;98587.30;1750283;82;21142;-64
2021/04/03 18:14:41;;;;;;;21.68;10.70;;;;;;;7.74;44.00;98579.55;1819840;79;21281;-64
2021/04/03 18:17:11;;;;;;;17.45;7.87;;;;;;;7.70;43.95;98581.61;1819578;79;21142;-64
2021/04/03 18:19:45;;;;;;;23.18;10.30;;;;;;;7.67;44.04;98577.72;1747037;82;21111;-64
2021/04/03 18:22:14;;;;;;;23.22;9.48;;;;;;;7.65;44.31;98583.24;1819585;79;21119;-65
2021/04/03 18:24:43;;;;;;;18.65;9.33;;;;;;;7.61;44.53;98580.63;1819823;79;21138;-64
2021/04/03 18:27:13;;;;;;;18.25;8.93;;;;;;;7.59;44.64;98587.86;1819902;79;21703;-64
2021/04/03 18:29:41;;;;;;;15.63;7.80;;;;;;;7.54;44.79;98582.64;1750046;82;21170;-64
2021/04/03 18:32:09;;;;;;;16.95;6.60;;;;;;;7.51;44.87;98581.31;1819640;79;21146;-64
2021/04/03 18:34:38;;;;;;;15.63;7.87;;;;;;;7.48;44.76;98578.70;1819576;79;21141;-64
2021/04/03 18:37:09;;;;;;;16.55;8.35;;;;;;;7.48;44.85;98582.55;1819689;79;21632;-62
2021/04/03 18:39:37;;;;;;;12.47;6.00;;;;;;;7.46;44.96;98579.09;1819625;79;21140;-64
2021/04/03 18:42:06;;;;;;;16.75;7.03;;;;;;;7.43;44.91;98575.20;1819651;79;21142;-63
2021/04/03 18:44:35;;;;;;;16.97;7.33;;;;;;;7.42;45.06;98578.58;1819633;79;21130;-63
2021/04/03 18:47:04;;;;;;;16.42;8.28;;;;;;;7.42;45.33;98581.15;1819657;79;21308;-63
2021/04/03 18:49:34;;;;;;;15.83;7.78;;;;;;;7.39;45.45;98586.23;1820067;79;21289;-63
2021/04/03 18:52:03;;;;;;;16.48;7.80;;;;;;;7.38;45.49;98584.52;1819765;79;21221;-63
2021/04/03 18:54:35;;;;;;;14.20;6.10;;;;;;;7.37;45.63;98581.06;1819830;79;21127;-63
2021/04/03 18:57:04;;;;;;;18.05;7.28;;;;;;;7.36;45.44;98581.05;1750231;82;21304;-64
2021/04/03 18:59:32;;;;;;;16.70;6.05;;;;;;;7.37;45.52;98577.64;1819634;79;21154;-64
2021/04/03 19:02:01;;;;;;;15.30;6.97;;;;;;;7.37;45.59;98583.63;1819639;79;21664;-64
2021/04/03 19:04:29;;;;;;;20.75;9.28;;;;;;;7.36;45.65;98578.06;1812585;79;21181;-64
2021/04/03 19:06:58;;;;;;;20.97;7.45;;;;;;;7.37;45.80;98578.92;1811022;79;21732;-63
2021/04/03 19:09:27;;;;;;;17.07;8.65;;;;;;;7.42;45.72;98585.00;1811022;79;21129;-63
2021/04/03 19:11:55;;;;;;;17.05;8.75;;;;;;;7.43;45.69;98586.75;1811201;79;21264;-63
2021/04/03 19:14:22;;;;;;;15.72;8.73;;;;;;;7.44;45.68;98583.75;1811119;79;21285;-62
2021/04/03 19:16:52;;;;;;;27.05;9.78;;;;;;;7.41;45.82;98576.86;1742108;82;21198;-64
2021/04/03 19:19:20;;;;;;;19.90;9.05;;;;;;;7.42;45.93;98576.44;1811425;79;21277;-64
2021/04/03 19:21:48;;;;;;;16.45;8.08;;;;;;;7.43;46.09;98580.72;1811032;79;21334;-65
2021/04/03 19:24:16;;;;;;;17.57;6.55;;;;;;;7.44;46.04;98582.47;1811033;79;21143;-64
2021/04/03 19:26:44;;;;;;;16.23;8.30;;;;;;;7.44;45.88;98587.18;1811015;79;21127;-64
2021/04/03 19:29:14;;;;;;;20.30;11.03;;;;;;;7.46;46.03;98588.08;1811107;79;21182;-63
2021/04/03 19:31:42;;;;;;;32.40;12.95;;;;;;;7.46;46.62;98588.08;1772607;81;21136;-63
2021/04/03 19:34:13;;;;;;;33.63;16.02;;;;;;;7.44;47.03;98589.75;1811047;79;21284;-64
2021/04/03 19:36:41;;;;;;;29.57;14.03;;;;;;;7.39;47.30;98584.52;1811163;79;21142;-64
2021/04/03 19:39:10;;;;;;;23.07;12.30;;;;;;;7.37;47.45;98590.47;1742202;82;21240;-63
2021/04/03 19:41:38;;;;;;;20.48;11.08;;;;;;;7.34;47.52;98587.44;1811215;79;21111;-64
2021/04/03 19:44:06;;;;;;;23.70;12.65;;;;;;;7.32;47.71;98586.95;1811129;79;21174;-63